Nrp Zarco — CTEH — position and weather

sailwx.info

Track history (hours):
 
Tides and Currents Weather Stations Pressure Air Temp Water Temp Dewpoint Dewpoint Depression Visibility Wind Speed Wind Dir Waves Ship Positions

Nrp Zarco

Last reported at 2017-Nov-18 19:10 UTC. Time now 2017-Nov-21 10:18 UTC.
Position N 38°40' W 009°09'.

Length 23 m; draft 3 m.

Type: Sailing vessel. MMSI: 263143000.

Date/timePositionNaut miles runAvg speedWind from/ knotsBaromVisibWave heightAir tempDewpointWater temp
2017-Nov-18 19:10N 38°40' W 009°09'0 0.0
2017-Nov-18 19:01N 38°40' W 009°09'1 2.4
2017-Nov-18 18:30N 38°42' W 009°09'2 4.5
2017-Nov-18 18:01N 38°41' W 009°12'2 4.0
2017-Nov-18 17:31N 38°41' W 009°14'2 4.8
2017-Nov-18 17:00N 38°41' W 009°17'2 4.7
2017-Nov-18 16:29N 38°40' W 009°20'3 5.9
2017-Nov-18 16:01N 38°42' W 009°24'0 0.4
2017-Nov-18 15:29N 38°42' W 009°24'0 0.0
2017-Nov-18 14:59N 38°42' W 009°24'0 0.0
2017-Nov-18 14:30N 38°42' W 009°24'0 0.0
2017-Nov-18 14:00N 38°42' W 009°24'0 0.0
2017-Nov-18 13:30N 38°42' W 009°24'0 0.0
2017-Nov-18 13:00N 38°42' W 009°24'0 0.0
2017-Nov-18 12:30N 38°42' W 009°24'0 0.3
2017-Nov-18 12:00N 38°42' W 009°24'0 0.6
2017-Nov-18 11:30N 38°41' W 009°24'2 4.1
2017-Nov-18 11:00N 38°39' W 009°23'2 4.7
2017-Nov-18 10:30N 38°39' W 009°20'3 6.1
2017-Nov-18 10:00N 38°41' W 009°17'3 5.6
2017-Nov-18 09:29N 38°41' W 009°13'3 6.1
2017-Nov-18 09:00N 38°42' W 009°10'2 3.2
2017-Nov-18 08:30N 38°41' W 009°08'  
Track history (hours):
 
Tides and Currents Weather Stations Pressure Air Temp Water Temp Dewpoint Dewpoint Depression Visibility Wind Speed Wind Dir Waves Ship Positions

Nrp Zarco

Last reported at 2017-Nov-18 19:10 UTC. Time now 2017-Nov-21 10:18 UTC.
Position N 38°40' W 009°09'.

Length 23 m; draft 3 m.

Type: Sailing vessel. MMSI: 263143000.

Date/timePositionNaut miles runAvg speedWind from/ knotsBaromVisibWave heightAir tempDewpointWater temp
2017-Nov-18 19:10N 38°40' W 009°09'0 0.0
2017-Nov-18 19:01N 38°40' W 009°09'1 2.4
2017-Nov-18 18:30N 38°42' W 009°09'2 4.5
2017-Nov-18 18:01N 38°41' W 009°12'2 4.0
2017-Nov-18 17:31N 38°41' W 009°14'2 4.8
2017-Nov-18 17:00N 38°41' W 009°17'2 4.7
2017-Nov-18 16:29N 38°40' W 009°20'3 5.9
2017-Nov-18 16:01N 38°42' W 009°24'0 0.4
2017-Nov-18 15:29N 38°42' W 009°24'0 0.0
2017-Nov-18 14:59N 38°42' W 009°24'0 0.0
2017-Nov-18 14:30N 38°42' W 009°24'0 0.0
2017-Nov-18 14:00N 38°42' W 009°24'0 0.0
2017-Nov-18 13:30N 38°42' W 009°24'0 0.0
2017-Nov-18 13:00N 38°42' W 009°24'0 0.0
2017-Nov-18 12:30N 38°42' W 009°24'0 0.3
2017-Nov-18 12:00N 38°42' W 009°24'0 0.6
2017-Nov-18 11:30N 38°41' W 009°24'2 4.1
2017-Nov-18 11:00N 38°39' W 009°23'2 4.7
2017-Nov-18 10:30N 38°39' W 009°20'3 6.1
2017-Nov-18 10:00N 38°41' W 009°17'3 5.6
2017-Nov-18 09:29N 38°41' W 009°13'3 6.1
2017-Nov-18 09:00N 38°42' W 009°10'2 3.2
2017-Nov-18 08:30N 38°41' W 009°08'  

Dump ship's entire track history